Time;durP1;ratioP1;P1;durP2;ratioP2;P2;SDS_P1;SDS_P2;PMS_P1;PMS_P2;Temp;Humidity;BMP_temperature;BMP_pressure;BME280_temperature;BME280_humidity;BME280_pressure;Samples;Min_cycle;Max_cycle;Signal;HPM_P1;HPM_P2
2024/01/24 00:02:04;;;;;;;5.27;1.80;;;13.60;99.90;;;;;;5094944;28;20306;-70
2024/01/24 00:04:29;;;;;;;2.93;2.03;;;13.60;99.90;;;;;;5094678;28;20172;-71
2024/01/24 00:06:55;;;;;;;4.57;1.87;;;13.60;99.90;;;;;;5095131;28;20179;-70
2024/01/24 00:09:20;;;;;;;3.80;1.63;;;13.60;99.90;;;;;;5094953;28;20203;-70
2024/01/24 00:11:46;;;;;;;2.63;1.77;;;13.70;99.90;;;;;;5094830;28;20171;-70
2024/01/24 00:14:11;;;;;;;3.03;1.80;;;13.60;99.90;;;;;;5094966;28;20172;-70
2024/01/24 00:16:37;;;;;;;2.50;1.73;;;13.70;99.90;;;;;;5094996;28;20168;-71
2024/01/24 00:19:03;;;;;;;3.67;2.00;;;13.70;99.90;;;;;;5094248;28;20190;-71
2024/01/24 00:21:29;;;;;;;2.20;2.00;;;13.70;99.90;;;;;;5094641;28;20239;-71
2024/01/24 00:23:55;;;;;;;3.30;1.60;;;13.60;99.90;;;;;;5094633;28;20615;-71
2024/01/24 00:26:20;;;;;;;2.00;1.80;;;13.60;99.90;;;;;;5094731;28;20242;-72
2024/01/24 00:28:46;;;;;;;2.97;2.00;;;13.70;99.90;;;;;;5094596;28;20180;-70
2024/01/24 00:31:11;;;;;;;2.13;1.70;;;13.60;99.90;;;;;;5094092;28;20220;-71
2024/01/24 00:33:37;;;;;;;4.30;1.57;;;13.60;99.90;;;;;;5094525;28;20279;-71
2024/01/24 00:36:03;;;;;;;2.67;1.70;;;13.70;99.90;;;;;;5094887;28;20172;-71
2024/01/24 00:38:28;;;;;;;3.27;1.73;;;13.70;99.90;;;;;;5094752;28;20641;-72
2024/01/24 00:40:54;;;;;;;1.90;1.40;;;13.70;99.90;;;;;;5094457;28;20663;-72
2024/01/24 00:43:20;;;;;;;1.90;1.67;;;13.70;99.90;;;;;;5094632;28;20225;-70
2024/01/24 00:45:45;;;;;;;3.30;1.60;;;13.80;99.90;;;;;;5094206;28;20627;-72
2024/01/24 00:48:11;;;;;;;3.20;2.00;;;13.80;99.90;;;;;;5093984;28;20259;-73
2024/01/24 00:50:36;;;;;;;2.37;2.17;;;13.70;99.90;;;;;;5094438;28;20179;-72
2024/01/24 00:53:04;;;;;;;2.63;2.10;;;13.70;99.90;;;;;;5094233;28;20714;-71
2024/01/24 00:55:30;;;;;;;3.90;1.60;;;13.70;99.90;;;;;;5094164;28;20236;-70
2024/01/24 00:57:58;;;;;;;2.70;2.50;;;13.60;99.90;;;;;;5093845;28;20702;-71
2024/01/24 01:00:24;;;;;;;1.70;1.57;;;13.60;99.90;;;;;;5093847;28;20167;-71
2024/01/24 01:02:49;;;;;;;4.10;2.87;;;13.50;99.90;;;;;;5093443;28;20701;-71
2024/01/24 01:05:15;;;;;;;2.30;1.80;;;13.50;99.90;;;;;;5092621;28;20174;-71
2024/01/24 01:07:40;;;;;;;2.40;1.70;;;13.40;99.90;;;;;;5093690;28;20172;-71
2024/01/24 01:10:08;;;;;;;2.77;1.40;;;13.30;99.90;;;;;;5093746;28;20555;-69
2024/01/24 01:12:34;;;;;;;3.77;2.00;;;13.30;99.90;;;;;;5093769;28;20172;-70
2024/01/24 01:14:59;;;;;;;2.77;2.10;;;13.20;99.90;;;;;;5093644;28;20584;-71
2024/01/24 01:17:25;;;;;;;2.70;2.50;;;13.20;99.90;;;;;;5093357;28;20168;-71
2024/01/24 01:19:50;;;;;;;3.00;2.03;;;13.10;99.90;;;;;;5093768;28;20171;-71
2024/01/24 01:22:16;;;;;;;2.40;2.07;;;13.10;99.90;;;;;;5093731;28;20214;-71
2024/01/24 01:24:42;;;;;;;2.43;2.03;;;13.00;99.90;;;;;;5093685;28;20183;-71
2024/01/24 01:27:08;;;;;;;2.43;1.83;;;13.00;99.90;;;;;;5093389;28;20504;-71
2024/01/24 01:29:34;;;;;;;6.03;5.53;;;13.10;99.90;;;;;;5093345;28;20620;-71
2024/01/24 01:32:00;;;;;;;2.60;2.40;;;13.00;99.90;;;;;;5093065;28;20222;-72
2024/01/24 01:34:25;;;;;;;1.90;1.80;;;12.90;99.90;;;;;;5093448;28;20193;-72
2024/01/24 01:36:51;;;;;;;4.43;4.13;;;12.90;99.90;;;;;;5093459;28;20164;-70
2024/01/24 01:39:16;;;;;;;1.67;1.57;;;12.90;99.90;;;;;;5092009;28;20193;-71
2024/01/24 01:41:46;;;;;;;4.10;2.10;;;12.80;99.90;;;;;;5093371;28;20547;-71
2024/01/24 01:44:12;;;;;;;2.67;2.10;;;12.80;99.90;;;;;;5093177;28;20508;-71
2024/01/24 01:46:38;;;;;;;1.90;1.70;;;12.80;99.90;;;;;;5092927;28;20179;-71
2024/01/24 01:49:04;;;;;;;1.80;1.70;;;12.80;99.90;;;;;;5093195;28;20663;-71
2024/01/24 01:51:30;;;;;;;2.20;2.10;;;12.80;99.90;;;;;;5093251;28;20167;-72
2024/01/24 01:53:57;;;;;;;2.03;1.93;;;12.70;99.90;;;;;;5093326;28;21044;-71
2024/01/24 01:56:23;;;;;;;2.67;1.80;;;12.70;99.90;;;;;;5092988;28;20194;-70
2024/01/24 01:58:49;;;;;;;2.17;2.07;;;12.70;99.90;;;;;;5092522;28;20176;-71
2024/01/24 02:01:16;;;;;;;1.90;1.80;;;12.70;99.90;;;;;;5092665;28;20233;-71
2024/01/24 02:03:42;;;;;;;1.80;1.70;;;12.70;99.90;;;;;;5093100;28;20163;-70
2024/01/24 02:06:08;;;;;;;1.90;1.80;;;12.70;99.90;;;;;;5093113;28;20561;-71
2024/01/24 02:08:36;;;;;;;1.70;1.60;;;12.70;99.90;;;;;;5093117;28;20168;-71
2024/01/24 02:11:03;;;;;;;1.87;1.77;;;12.60;99.90;;;;;;5092939;28;20615;-71
2024/01/24 02:13:31;;;;;;;1.80;1.70;;;12.60;99.90;;;;;;5091696;28;20259;-71
2024/01/24 02:16:03;;;;;;;1.77;1.60;;;12.70;99.90;;;;;;5092656;28;20168;-71
2024/01/24 02:18:29;;;;;;;1.40;1.30;;;12.60;99.90;;;;;;5092970;28;20220;-71
2024/01/24 02:20:55;;;;;;;1.60;1.50;;;12.60;99.90;;;;;;5092972;28;20579;-71
2024/01/24 02:23:24;;;;;;;1.20;1.20;;;12.60;99.90;;;;;;5093149;28;20263;-71
2024/01/24 02:25:50;;;;;;;1.20;1.20;;;12.60;99.90;;;;;;5092865;28;20180;-71
2024/01/24 02:28:16;;;;;;;1.30;1.30;;;12.60;99.90;;;;;;5091611;28;20278;-70
2024/01/24 02:30:42;;;;;;;1.20;1.20;;;12.50;99.90;;;;;;5092265;28;20220;-71
2024/01/24 02:33:08;;;;;;;1.40;1.30;;;12.60;99.90;;;;;;5092850;28;20169;-71
2024/01/24 02:35:34;;;;;;;1.17;1.17;;;12.60;99.90;;;;;;5092725;28;20233;-71
2024/01/24 02:38:00;;;;;;;1.37;1.27;;;12.50;99.90;;;;;;5092875;28;20186;-72
2024/01/24 02:40:26;;;;;;;1.03;1.03;;;12.60;99.90;;;;;;5092721;28;20524;-71
2024/01/24 02:42:51;;;;;;;1.00;1.00;;;12.60;99.90;;;;;;5091578;28;20245;-72
2024/01/24 02:45:17;;;;;;;0.80;0.80;;;12.50;99.90;;;;;;5092525;28;20168;-72
2024/01/24 02:47:42;;;;;;;1.20;1.00;;;12.60;99.90;;;;;;5092713;28;20210;-72
2024/01/24 02:50:09;;;;;;;0.80;0.80;;;12.60;99.90;;;;;;5092732;28;20635;-71
2024/01/24 02:52:34;;;;;;;1.60;1.50;;;12.50;99.90;;;;;;5092717;28;20197;-71
2024/01/24 02:55:00;;;;;;;1.80;0.97;;;12.60;99.90;;;;;;5092511;28;20183;-71
2024/01/24 02:57:25;;;;;;;0.80;0.80;;;12.60;99.90;;;;;;5092703;28;20216;-72
2024/01/24 02:59:51;;;;;;;0.90;0.90;;;12.60;99.90;;;;;;5092410;28;20636;-73
2024/01/24 03:02:16;;;;;;;1.17;0.80;;;12.60;99.90;;;;;;5092595;28;20662;-73
2024/01/24 03:04:42;;;;;;;0.80;0.70;;;12.60;99.90;;;;;;5092623;28;20175;-72
2024/01/24 03:07:08;;;;;;;0.73;0.73;;;12.60;99.90;;;;;;5092466;28;20263;-72
2024/01/24 03:09:34;;;;;;;0.83;0.83;;;12.60;99.90;;;;;;5093514;28;20172;-72
2024/01/24 03:11:59;;;;;;;1.07;1.00;;;12.60;99.90;;;;;;5096245;28;20556;-72
2024/01/24 03:14:25;;;;;;;1.53;0.80;;;12.70;99.90;;;;;;5095887;28;20619;-72
2024/01/24 03:16:50;;;;;;;0.67;0.67;;;12.70;99.90;;;;;;5096206;28;20198;-71
2024/01/24 03:19:16;;;;;;;0.67;0.67;;;12.70;99.90;;;;;;5095897;28;20229;-72
2024/01/24 03:21:42;;;;;;;0.60;0.60;;;12.70;99.90;;;;;;5095949;28;20235;-72
2024/01/24 03:24:08;;;;;;;0.77;0.77;;;12.70;99.90;;;;;;5095868;28;20178;-71
2024/01/24 03:26:33;;;;;;;0.80;0.80;;;12.70;99.90;;;;;;5095934;28;20564;-71
2024/01/24 03:28:59;;;;;;;1.33;0.87;;;12.80;99.90;;;;;;5095611;28;20243;-72
2024/01/24 03:31:24;;;;;;;0.83;0.60;;;12.80;99.90;;;;;;5095773;28;20212;-72
2024/01/24 03:33:50;;;;;;;1.13;0.80;;;12.80;99.90;;;;;;5095778;28;20175;-71
2024/01/24 03:36:15;;;;;;;1.00;0.90;;;12.80;99.90;;;;;;5095735;28;20172;-71
2024/01/24 03:38:42;;;;;;;0.80;0.80;;;12.80;99.90;;;;;;5095383;28;20207;-71
2024/01/24 03:41:07;;;;;;;3.97;0.90;;;12.80;99.90;;;;;;5095364;28;20174;-71
2024/01/24 03:43:33;;;;;;;0.80;0.80;;;12.80;99.90;;;;;;5095346;28;20172;-71
2024/01/24 03:45:59;;;;;;;2.43;0.70;;;12.80;99.90;;;;;;5095608;28;20255;-70
2024/01/24 03:48:25;;;;;;;1.00;0.80;;;12.70;99.90;;;;;;5095646;28;20170;-71
2024/01/24 03:50:50;;;;;;;5.67;1.00;;;12.80;99.90;;;;;;5095346;28;20532;-72
2024/01/24 03:53:16;;;;;;;3.50;1.10;;;12.80;99.90;;;;;;5095249;28;20631;-71
2024/01/24 03:55:42;;;;;;;2.40;1.00;;;12.80;99.90;;;;;;5095056;28;20202;-71
2024/01/24 03:58:07;;;;;;;3.60;1.20;;;12.90;99.90;;;;;;5094991;28;20199;-71
2024/01/24 04:00:33;;;;;;;2.57;1.10;;;12.90;99.90;;;;;;5095091;28;20163;-71
2024/01/24 04:02:58;;;;;;;3.20;1.23;;;12.90;99.90;;;;;;5095138;28;20690;-71
2024/01/24 04:05:24;;;;;;;5.60;1.27;;;12.90;99.90;;;;;;5094913;28;20172;-72
2024/01/24 04:07:50;;;;;;;2.17;1.10;;;12.90;99.90;;;;;;5094909;28;20258;-71
2024/01/24 04:10:16;;;;;;;3.70;1.10;;;12.80;99.90;;;;;;5094793;28;20255;-71
2024/01/24 04:12:42;;;;;;;5.87;1.17;;;12.80;99.90;;;;;;5094833;28;20249;-71
2024/01/24 04:15:08;;;;;;;6.97;1.70;;;12.90;99.90;;;;;;5093038;28;20200;-71
2024/01/24 04:17:33;;;;;;;8.43;1.50;;;12.80;99.90;;;;;;5094600;28;20179;-72
2024/01/24 04:19:59;;;;;;;6.83;1.80;;;12.70;99.90;;;;;;5093074;28;20217;-71
2024/01/24 04:22:25;;;;;;;7.53;1.80;;;12.70;99.90;;;;;;5094424;28;20207;-71
2024/01/24 04:24:50;;;;;;;13.03;2.30;;;12.70;99.90;;;;;;5094391;28;20626;-72
2024/01/24 04:27:16;;;;;;;16.63;2.90;;;12.80;99.90;;;;;;5093083;28;20183;-71
2024/01/24 04:29:42;;;;;;;13.20;2.60;;;12.80;99.90;;;;;;5094439;28;20522;-71
2024/01/24 04:32:09;;;;;;;13.73;2.60;;;12.80;99.90;;;;;;5094185;28;20194;-71
2024/01/24 04:34:35;;;;;;;17.13;3.47;;;12.80;99.90;;;;;;5093971;28;20648;-71
2024/01/24 04:37:01;;;;;;;10.60;3.17;;;12.80;99.90;;;;;;5093057;28;20267;-71
2024/01/24 04:39:26;;;;;;;16.77;3.80;;;12.90;99.90;;;;;;5093941;28;20268;-71
2024/01/24 04:41:52;;;;;;;20.53;4.33;;;12.90;99.90;;;;;;5093996;28;20667;-71
2024/01/24 04:44:17;;;;;;;16.77;4.03;;;12.80;99.90;;;;;;5094615;28;20164;-71
2024/01/24 04:46:43;;;;;;;16.80;3.90;;;12.80;99.90;;;;;;5093861;28;20176;-71
2024/01/24 04:49:08;;;;;;;21.73;4.43;;;12.80;99.90;;;;;;5094047;28;20168;-71
2024/01/24 04:51:34;;;;;;;20.80;4.70;;;12.80;99.90;;;;;;5093746;28;20623;-72
2024/01/24 04:54:01;;;;;;;21.30;3.63;;;12.80;99.90;;;;;;5093197;28;20168;-72
2024/01/24 04:56:27;;;;;;;19.00;3.67;;;12.80;99.90;;;;;;5092636;28;20171;-71
2024/01/24 04:58:52;;;;;;;21.70;4.77;;;12.80;99.90;;;;;;5093444;28;20203;-72
2024/01/24 05:01:18;;;;;;;17.03;4.63;;;12.80;99.90;;;;;;5093657;28;20223;-71
2024/01/24 05:03:44;;;;;;;26.40;4.90;;;12.70;99.90;;;;;;5093333;28;20627;-72
2024/01/24 05:06:10;;;;;;;26.10;5.23;;;12.90;99.90;;;;;;5093725;28;20171;-72
2024/01/24 05:08:36;;;;;;;17.97;4.50;;;12.80;99.90;;;;;;5093010;28;20175;-72
2024/01/24 05:11:02;;;;;;;21.47;5.00;;;12.80;99.90;;;;;;5093154;28;20163;-71
2024/01/24 05:13:28;;;;;;;20.00;5.10;;;12.80;99.90;;;;;;5093540;28;20191;-71
2024/01/24 05:15:53;;;;;;;20.63;5.07;;;12.70;99.90;;;;;;5093177;28;20631;-72
2024/01/24 05:18:19;;;;;;;23.37;5.30;;;12.70;99.90;;;;;;5092523;28;20267;-72
2024/01/24 05:20:45;;;;;;;24.73;5.30;;;12.70;99.90;;;;;;5092870;28;20237;-70
2024/01/24 05:23:10;;;;;;;30.37;5.73;;;12.70;99.90;;;;;;5091454;28;20239;-71
2024/01/24 05:25:36;;;;;;;25.40;5.70;;;12.60;99.90;;;;;;5093202;28;20627;-72
2024/01/24 05:28:02;;;;;;;24.43;5.60;;;12.70;99.90;;;;;;5093055;28;20182;-71
2024/01/24 05:30:27;;;;;;;21.90;4.70;;;12.70;99.90;;;;;;5092898;28;20656;-71
2024/01/24 05:32:56;;;;;;;25.43;5.43;;;12.70;99.90;;;;;;5091992;28;20168;-71
2024/01/24 05:35:22;;;;;;;23.17;5.33;;;12.70;99.90;;;;;;5091727;28;20635;-72
2024/01/24 05:37:47;;;;;;;31.87;5.30;;;12.70;99.90;;;;;;5092911;28;20255;-72
2024/01/24 05:40:13;;;;;;;30.13;5.77;;;12.70;99.90;;;;;;5092938;28;20636;-70
2024/01/24 05:42:39;;;;;;;25.97;5.80;;;12.70;99.90;;;;;;5092895;28;20215;-72
2024/01/24 05:45:05;;;;;;;24.27;5.30;;;12.70;99.90;;;;;;5092802;28;20176;-72
2024/01/24 05:47:31;;;;;;;27.33;6.17;;;12.70;99.90;;;;;;5092952;28;20753;-71
2024/01/24 05:49:58;;;;;;;28.77;6.10;;;12.70;99.90;;;;;;5093119;28;20171;-72
2024/01/24 05:52:24;;;;;;;28.87;6.10;;;12.70;99.90;;;;;;5092222;28;20224;-71
2024/01/24 05:54:49;;;;;;;26.30;6.23;;;12.60;99.90;;;;;;5092614;28;20188;-72
2024/01/24 05:57:15;;;;;;;32.83;6.70;;;12.60;99.90;;;;;;5092841;28;20178;-72
2024/01/24 05:59:40;;;;;;;31.40;6.50;;;12.60;99.90;;;;;;5092732;28;20612;-70
2024/01/24 06:02:06;;;;;;;28.77;6.20;;;12.60;99.90;;;;;;5092719;28;20211;-72
2024/01/24 06:04:31;;;;;;;29.70;6.60;;;12.60;99.90;;;;;;5092399;28;20164;-71
2024/01/24 06:07:00;;;;;;;34.13;6.13;;;12.60;99.90;;;;;;5092431;28;20195;-72
2024/01/24 06:09:28;;;;;;;24.93;5.77;;;12.50;99.90;;;;;;5092233;28;20229;-72
2024/01/24 06:11:54;;;;;;;33.63;6.50;;;12.50;99.90;;;;;;5091840;28;20678;-72
2024/01/24 06:14:20;;;;;;;25.77;6.07;;;12.40;99.90;;;;;;5092483;28;20168;-71
2024/01/24 06:16:45;;;;;;;35.43;6.50;;;12.40;99.90;;;;;;5092624;28;20171;-71
2024/01/24 06:19:11;;;;;;;33.23;7.00;;;12.40;99.90;;;;;;5092101;28;20607;-71
2024/01/24 06:21:37;;;;;;;32.37;6.43;;;12.40;99.90;;;;;;5091961;28;20212;-71
2024/01/24 06:24:05;;;;;;;23.30;5.57;;;12.40;99.90;;;;;;5090644;28;20714;-71
2024/01/24 06:26:30;;;;;;;34.50;7.20;;;12.40;99.90;;;;;;5091629;28;20188;-72
2024/01/24 06:28:57;;;;;;;27.03;5.77;;;12.40;99.90;;;;;;5091932;28;20696;-72
2024/01/24 06:31:22;;;;;;;25.97;6.57;;;12.40;99.90;;;;;;5091463;28;20208;-71
2024/01/24 06:33:48;;;;;;;32.03;7.13;;;12.30;99.90;;;;;;5091434;28;20172;-72
2024/01/24 06:36:13;;;;;;;32.47;7.60;;;12.30;99.90;;;;;;5091540;28;20195;-72
2024/01/24 06:38:39;;;;;;;39.57;6.83;;;12.30;99.90;;;;;;5091432;28;20172;-71
2024/01/24 06:41:05;;;;;;;28.23;7.13;;;12.30;99.90;;;;;;5091457;28;20678;-72
2024/01/24 06:43:30;;;;;;;28.87;7.07;;;12.30;99.90;;;;;;5092979;28;20172;-71
2024/01/24 06:45:56;;;;;;;41.53;8.03;;;12.30;99.90;;;;;;5094142;28;20634;-72
2024/01/24 06:48:22;;;;;;;36.13;7.07;;;12.30;99.90;;;;;;5095398;28;20213;-72
2024/01/24 06:50:47;;;;;;;29.80;7.50;;;12.30;99.90;;;;;;5095399;28;20195;-71
2024/01/24 06:53:14;;;;;;;34.73;7.07;;;12.30;99.90;;;;;;5095730;28;20229;-71
2024/01/24 06:55:40;;;;;;;29.13;6.57;;;12.20;99.90;;;;;;5094863;28;20199;-71
2024/01/24 06:58:06;;;;;;;31.53;7.70;;;12.30;99.90;;;;;;5093885;28;20164;-72
2024/01/24 07:00:32;;;;;;;47.23;8.00;;;12.30;99.90;;;;;;5095438;28;20225;-72
2024/01/24 07:02:59;;;;;;;32.57;7.53;;;12.40;99.90;;;;;;5095051;28;20261;-73
2024/01/24 07:05:25;;;;;;;35.07;7.43;;;12.30;99.90;;;;;;5094511;28;20206;-70
2024/01/24 07:07:50;;;;;;;27.83;6.37;;;12.30;99.90;;;;;;5095389;28;20176;-71
2024/01/24 07:10:16;;;;;;;39.10;7.93;;;12.30;99.90;;;;;;5093551;28;20199;-72
2024/01/24 07:12:47;;;;;;;29.60;7.60;;;12.30;99.90;;;;;;5094804;28;20203;-71
2024/01/24 07:15:15;;;;;;;47.80;8.10;;;12.30;99.90;;;;;;5095140;28;20184;-70
2024/01/24 07:17:40;;;;;;;41.33;8.07;;;12.20;99.90;;;;;;5095073;28;20220;-70
2024/01/24 07:20:07;;;;;;;33.07;7.90;;;12.30;99.90;;;;;;5094605;28;20180;-71
2024/01/24 07:22:32;;;;;;;37.13;7.63;;;12.30;99.90;;;;;;5094245;28;20247;-71
2024/01/24 07:24:58;;;;;;;39.57;7.83;;;12.30;99.90;;;;;;5095175;28;20591;-70
2024/01/24 07:27:23;;;;;;;37.23;7.67;;;12.40;99.90;;;;;;5094393;28;20663;-70
2024/01/24 07:29:49;;;;;;;38.73;7.80;;;12.30;99.90;;;;;;5084770;28;20543;-75
2024/01/24 07:32:15;;;;;;;38.57;8.63;;;12.20;99.90;;;;;;5073984;28;20541;-71
2024/01/24 07:34:40;;;;;;;37.17;8.10;;;12.20;99.90;;;;;;5073990;28;20191;-72
2024/01/24 07:37:07;;;;;;;31.10;8.03;;;12.10;99.90;;;;;;5074471;28;20176;-71
2024/01/24 07:39:33;;;;;;;40.23;8.43;;;12.10;99.90;;;;;;5074283;28;20239;-71
2024/01/24 07:41:59;;;;;;;39.93;8.27;;;12.10;99.90;;;;;;5074151;28;20327;-72
2024/01/24 07:44:25;;;;;;;32.87;6.77;;;12.10;99.90;;;;;;5073535;28;20199;-71
2024/01/24 07:46:51;;;;;;;47.17;8.77;;;12.00;99.90;;;;;;5072940;28;20218;-70
2024/01/24 07:49:17;;;;;;;44.73;8.20;;;12.00;99.90;;;;;;5073480;28;20539;-71
2024/01/24 07:51:46;;;;;;;37.23;8.93;;;11.90;99.90;;;;;;5073166;28;20343;-70
2024/01/24 07:54:12;;;;;;;48.73;8.50;;;11.90;99.90;;;;;;5073818;28;20207;-72
2024/01/24 07:56:38;;;;;;;39.23;8.40;;;12.00;99.90;;;;;;5072996;28;20165;-70
2024/01/24 07:59:05;;;;;;;37.27;7.43;;;12.00;99.90;;;;;;5073150;28;20195;-72
2024/01/24 08:01:30;;;;;;;35.37;8.63;;;12.00;99.90;;;;;;5073913;28;20279;-70
2024/01/24 08:03:56;;;;;;;38.53;9.00;;;12.00;99.90;;;;;;5073019;28;20267;-71
2024/01/24 08:06:21;;;;;;;48.23;8.50;;;12.00;99.90;;;;;;5073567;28;20175;-71
2024/01/24 08:08:48;;;;;;;38.87;9.07;;;12.00;99.90;;;;;;5073309;28;20213;-70
2024/01/24 08:11:13;;;;;;;36.07;8.03;;;12.00;99.90;;;;;;5073522;28;20221;-69
2024/01/24 08:13:39;;;;;;;44.10;8.77;;;12.00;99.90;;;;;;5073258;28;20217;-71
2024/01/24 08:16:05;;;;;;;40.57;9.10;;;12.10;99.90;;;;;;5090466;28;20176;-70
2024/01/24 08:18:32;;;;;;;43.30;9.00;;;12.20;99.90;;;;;;5093214;28;20692;-71
2024/01/24 08:20:57;;;;;;;38.50;8.23;;;12.30;99.90;;;;;;5092334;28;20592;-72
2024/01/24 08:23:23;;;;;;;40.13;8.73;;;12.20;99.90;;;;;;5074371;28;20227;-71
2024/01/24 08:25:49;;;;;;;43.90;8.63;;;12.20;99.90;;;;;;5066159;28;20229;-71
2024/01/24 08:28:15;;;;;;;42.33;8.53;;;12.30;99.90;;;;;;5080412;28;20179;-71
2024/01/24 08:30:41;;;;;;;44.03;9.33;;;12.20;99.90;;;;;;5073745;28;20220;-70
2024/01/24 08:33:06;;;;;;;39.83;9.03;;;12.20;99.90;;;;;;5076392;28;20177;-71
2024/01/24 08:35:35;;;;;;;40.13;8.97;;;12.20;99.90;;;;;;5077160;28;20275;-74
2024/01/24 08:38:01;;;;;;;40.63;10.40;;;12.20;99.90;;;;;;5085989;28;20433;-69
2024/01/24 08:40:26;;;;;;;41.97;8.87;;;12.30;99.90;;;;;;5089545;28;20586;-70
2024/01/24 08:42:52;;;;;;;44.37;9.03;;;12.30;99.90;;;;;;5081447;28;20216;-69
2024/01/24 08:45:18;;;;;;;33.33;6.43;;;12.20;99.90;;;;;;5080144;28;20181;-69
2024/01/24 08:47:43;;;;;;;49.50;9.27;;;12.30;99.90;;;;;;5076982;28;20198;-70
2024/01/24 08:50:10;;;;;;;44.57;10.80;;;12.20;99.90;;;;;;5078297;28;20517;-71
2024/01/24 08:52:35;;;;;;;46.83;11.80;;;12.20;99.90;;;;;;5086807;28;20200;-71
2024/01/24 08:55:01;;;;;;;52.80;12.43;;;12.30;99.90;;;;;;5085541;28;20709;-72
2024/01/24 08:57:27;;;;;;;51.53;11.40;;;12.40;99.90;;;;;;5071664;28;20189;-72
2024/01/24 08:59:53;;;;;;;45.47;10.50;;;12.30;99.90;;;;;;5072336;28;20529;-73
2024/01/24 09:02:20;;;;;;;37.90;10.13;;;12.40;99.90;;;;;;5070524;28;20555;-71
2024/01/24 09:04:47;;;;;;;38.10;9.00;;;12.50;99.90;;;;;;5076636;28;20177;-75
2024/01/24 09:07:16;;;;;;;36.63;8.77;;;12.60;99.90;;;;;;5085520;28;20262;-75
2024/01/24 09:09:42;;;;;;;37.13;8.93;;;12.50;99.90;;;;;;5079064;28;20172;-75
2024/01/24 09:12:07;;;;;;;39.60;8.30;;;12.60;99.90;;;;;;5085108;28;20218;-72
2024/01/24 09:14:33;;;;;;;40.70;8.77;;;12.50;99.90;;;;;;5089775;28;20183;-76
2024/01/24 09:16:58;;;;;;;40.80;8.87;;;12.50;99.90;;;;;;5099570;28;20229;-74
2024/01/24 09:19:24;;;;;;;34.03;8.53;;;12.60;99.90;;;;;;5075110;28;20191;-76
2024/01/24 09:21:50;;;;;;;42.50;9.40;;;12.80;99.90;;;;;;5098434;28;20252;-74
2024/01/24 09:24:16;;;;;;;40.80;8.90;;;12.70;99.90;;;;;;5091914;28;20537;-73
2024/01/24 09:26:41;;;;;;;42.07;9.47;;;12.80;99.90;;;;;;5075026;28;20183;-75
2024/01/24 09:29:11;;;;;;;46.13;8.80;;;12.80;99.90;;;;;;5088837;28;20531;-72
2024/01/24 09:31:43;;;;;;;34.60;8.20;;;12.60;99.90;;;;;;5089896;28;20224;-71
2024/01/24 09:34:10;;;;;;;51.23;9.00;;;12.70;99.90;;;;;;5097209;28;20186;-72
2024/01/24 09:36:35;;;;;;;45.40;9.90;;;12.80;99.90;;;;;;5083352;28;20187;-72
2024/01/24 09:39:01;;;;;;;42.83;8.83;;;12.90;99.90;;;;;;5087987;28;20202;-71
2024/01/24 09:41:28;;;;;;;47.37;9.30;;;13.00;99.90;;;;;;5096419;28;20229;-73
2024/01/24 09:43:59;;;;;;;34.77;8.73;;;13.00;99.90;;;;;;5087360;28;20167;-75
2024/01/24 09:46:25;;;;;;;43.50;8.93;;;12.90;99.90;;;;;;5076887;28;20177;-71
2024/01/24 09:48:51;;;;;;;44.27;9.40;;;12.80;99.90;;;;;;5087527;28;20180;-72
2024/01/24 09:51:17;;;;;;;41.40;9.30;;;13.00;99.90;;;;;;5091928;28;20184;-73
2024/01/24 09:53:47;;;;;;;41.47;8.47;;;13.00;99.90;;;;;;5107503;28;20270;-74
2024/01/24 09:56:14;;;;;;;42.47;10.03;;;13.20;99.90;;;;;;5105536;28;20159;-73
2024/01/24 09:58:39;;;;;;;45.23;9.10;;;13.30;99.90;;;;;;5078539;28;20238;-73
2024/01/24 10:01:11;;;;;;;41.63;9.67;;;13.30;99.90;;;;;;5086585;28;20655;-74
2024/01/24 10:03:37;;;;;;;40.07;10.03;;;13.10;99.90;;;;;;5103846;28;20211;-78
2024/01/24 10:06:06;;;;;;;41.83;8.43;;;13.10;99.90;;;;;;5093573;28;20218;-74
2024/01/24 10:08:32;;;;;;;45.93;8.90;;;13.10;99.90;;;;;;5101532;28;20338;-74
2024/01/24 10:10:57;;;;;;;37.10;8.63;;;13.00;99.90;;;;;;5080637;28;20263;-75
2024/01/24 10:13:26;;;;;;;39.97;8.00;;;13.00;99.90;;;;;;5084801;28;20187;-82
2024/01/24 10:15:53;;;;;;;43.33;10.17;;;13.00;99.90;;;;;;5092834;28;20172;-79
2024/01/24 10:18:19;;;;;;;48.40;9.47;;;13.00;99.90;;;;;;5092758;28;20642;-75
2024/01/24 10:20:46;;;;;;;41.13;9.00;;;13.10;99.90;;;;;;5105492;28;20167;-76
2024/01/24 10:23:12;;;;;;;52.10;9.77;;;13.30;99.90;;;;;;5101506;28;20204;-71
2024/01/24 10:25:41;;;;;;;41.57;9.73;;;13.40;99.90;;;;;;5086653;28;20194;-74
2024/01/24 10:28:13;;;;;;;41.50;9.77;;;13.40;99.90;;;;;;5093307;28;20179;-72
2024/01/24 10:30:42;;;;;;;42.60;9.40;;;13.40;99.90;;;;;;5100872;28;20225;-75
2024/01/24 10:33:12;;;;;;;42.93;8.70;;;13.40;99.90;;;;;;5092534;28;20211;-76
2024/01/24 10:35:38;;;;;;;41.47;9.30;;;13.40;99.90;;;;;;5094100;28;20188;-77
2024/01/24 10:38:05;;;;;;;39.60;8.33;;;13.40;99.90;;;;;;5094026;28;20184;-73
2024/01/24 10:40:31;;;;;;;40.97;10.77;;;13.40;99.90;;;;;;5102773;28;20401;-78
2024/01/24 10:43:07;;;;;;;43.80;9.67;;;13.50;99.90;;;;;;5102594;28;20199;-80
2024/01/24 10:45:35;;;;;;;41.67;9.50;;;13.50;99.90;;;;;;5091446;28;20188;-80
2024/01/24 10:48:01;;;;;;;42.00;8.83;;;13.40;99.90;;;;;;5105463;27;20171;-77
2024/01/24 10:50:27;;;;;;;35.47;8.93;;;13.40;99.90;;;;;;5097716;28;20175;-74
2024/01/24 10:52:53;;;;;;;45.37;8.97;;;13.50;99.90;;;;;;5087769;28;20177;-73
2024/01/24 10:55:21;;;;;;;37.47;9.20;;;13.50;99.90;;;;;;5104391;28;20359;-73
2024/01/24 10:57:47;;;;;;;37.60;8.93;;;13.60;99.90;;;;;;5088132;28;20177;-71
2024/01/24 11:00:15;;;;;;;39.87;8.37;;;13.70;99.90;;;;;;5082439;28;20180;-76
2024/01/24 11:02:41;;;;;;;43.27;9.20;;;13.60;99.90;;;;;;5088681;28;20202;-78
2024/01/24 11:05:30;;;;;;;35.33;8.77;;;13.50;99.90;;;;;;5099479;28;20177;-78
2024/01/24 11:08:09;;;;;;;38.10;9.03;;;13.70;99.90;;;;;;5088106;28;20668;-79
2024/01/24 11:10:38;;;;;;;40.60;8.60;;;13.50;99.90;;;;;;5093814;28;20258;-77
2024/01/24 11:13:07;;;;;;;39.40;8.93;;;13.60;99.90;;;;;;5088847;28;20266;-75
2024/01/24 11:15:34;;;;;;;38.63;9.37;;;13.70;99.90;;;;;;5087936;28;20566;-76
2024/01/24 11:18:22;;;;;;;45.97;14.00;;;13.70;99.90;;;;;;5096197;28;20229;-76
2024/01/24 11:21:00;;;;;;;33.60;8.57;;;14.10;99.90;;;;;;5111912;28;20195;-76
2024/01/24 11:23:44;;;;;;;37.30;8.80;;;14.10;99.90;;;;;;5106764;28;20649;-73
2024/01/24 11:26:30;;;;;;;46.00;10.77;;;14.10;99.90;;;;;;5079959;28;20180;-79
2024/01/24 11:29:32;;;;;;;35.97;9.10;;;13.90;99.90;;;;;;5069557;28;20176;-73
2024/01/24 11:31:58;;;;;;;33.70;7.80;;;13.90;99.90;;;;;;4979175;28;20221;-76
2024/01/24 11:34:27;;;;;;;35.47;8.27;;;13.70;99.90;;;;;;5007908;28;20178;-76
2024/01/24 11:36:53;;;;;;;35.73;8.47;;;13.50;99.90;;;;;;5001406;28;20191;-78
2024/01/24 11:39:31;;;;;;;39.83;8.50;;;13.60;99.90;;;;;;5006316;28;20183;-75
2024/01/24 11:42:30;;;;;;;32.93;7.93;;;13.70;99.90;;;;;;4993861;28;20246;-75
2024/01/24 11:45:16;;;;;;;41.03;9.63;;;13.80;99.90;;;;;;5000342;28;20183;-77
2024/01/24 11:47:42;;;;;;;32.93;7.93;;;13.70;99.90;;;;;;5004792;28;20190;-73
2024/01/24 11:50:09;;;;;;;33.80;7.80;;;13.50;99.90;;;;;;5006049;28;20178;-72
2024/01/24 11:52:34;;;;;;;34.10;7.70;;;13.30;99.90;;;;;;5008813;28;20186;-81
2024/01/24 11:55:00;;;;;;;33.17;7.53;;;13.40;99.90;;;;;;4990365;28;20342;-79
2024/01/24 11:57:30;;;;;;;35.37;8.13;;;13.50;99.90;;;;;;4995110;28;20189;-78
2024/01/24 11:59:56;;;;;;;38.08;9.18;;;13.60;99.90;;;;;;5007224;28;20978;-79
2024/01/24 12:02:21;;;;;;;34.30;8.33;;;13.60;99.90;;;;;;4987970;28;20218;-77
2024/01/24 12:04:51;;;;;;;34.57;9.70;;;13.50;99.90;;;;;;4998665;28;20774;-76
2024/01/24 12:07:17;;;;;;;36.57;8.43;;;13.60;99.90;;;;;;5000928;28;20277;-79
2024/01/24 12:09:42;;;;;;;32.93;8.63;;;13.70;99.90;;;;;;5080998;28;20658;-80
2024/01/24 12:12:13;;;;;;;28.20;7.63;;;13.90;99.90;;;;;;5086965;28;20204;-77
2024/01/24 12:14:40;;;;;;;37.43;8.77;;;14.00;99.90;;;;;;5102539;28;20187;-78
2024/01/24 12:17:06;;;;;;;31.17;9.70;;;13.90;99.90;;;;;;5090534;28;20183;-75
2024/01/24 12:19:33;;;;;;;33.00;7.57;;;14.00;99.90;;;;;;5075385;28;20244;-77
2024/01/24 12:21:58;;;;;;;37.53;8.37;;;14.10;99.90;;;;;;5087702;28;20217;-76
2024/01/24 12:24:25;;;;;;;34.47;8.63;;;14.00;99.90;;;;;;5091618;28;20659;-75
2024/01/24 12:26:50;;;;;;;36.90;8.23;;;13.90;99.90;;;;;;5082569;28;20543;-77
2024/01/24 12:29:16;;;;;;;33.07;8.13;;;13.90;99.90;;;;;;5083635;28;20191;-80
2024/01/24 12:31:45;;;;;;;30.17;8.07;;;14.00;99.90;;;;;;5081336;28;20326;-75
2024/01/24 12:34:11;;;;;;;31.60;8.33;;;13.90;99.90;;;;;;5090325;28;20267;-80
2024/01/24 12:36:37;;;;;;;30.37;7.80;;;13.70;99.90;;;;;;5074585;28;20453;-75
2024/01/24 12:39:05;;;;;;;34.33;8.20;;;13.70;99.90;;;;;;5085730;28;20261;-77